createdAt,value
2018-06-27T00:00:37.372Z,20.57
2018-06-27T00:01:37.367Z,20.56
2018-06-27T00:02:37.357Z,20.50
2018-06-27T00:03:37.349Z,20.57
2018-06-27T00:04:37.340Z,20.56
2018-06-27T00:05:37.336Z,20.51
2018-06-27T00:06:37.324Z,20.42
2018-06-27T00:07:37.316Z,20.53
2018-06-27T00:08:37.310Z,20.50
2018-06-27T00:09:37.303Z,20.46
2018-06-27T00:10:37.294Z,20.48
2018-06-27T00:11:37.286Z,20.46
2018-06-27T00:12:37.278Z,20.41
2018-06-27T00:13:37.270Z,20.34
2018-06-27T00:14:37.263Z,20.34
2018-06-27T00:15:37.253Z,20.34
2018-06-27T00:16:37.247Z,20.34
2018-06-27T00:17:37.240Z,20.35
2018-06-27T00:18:37.230Z,20.26
2018-06-27T00:19:37.223Z,20.20
2018-06-27T00:20:37.214Z,20.22
2018-06-27T00:21:37.210Z,20.16
2018-06-27T00:22:37.198Z,20.15
2018-06-27T00:23:37.191Z,20.17
2018-06-27T00:24:37.183Z,20.16
2018-06-27T00:25:37.176Z,20.19
2018-06-27T00:26:37.166Z,20.19
2018-06-27T00:27:37.159Z,20.15
2018-06-27T00:28:37.151Z,20.15
2018-06-27T00:29:37.143Z,20.13
2018-06-27T00:30:37.135Z,20.01
2018-06-27T00:31:37.127Z,20.19
2018-06-27T00:32:37.118Z,20.19
2018-06-27T00:33:37.109Z,20.07
2018-06-27T00:34:37.101Z,20.13
2018-06-27T00:35:37.094Z,20.13
2018-06-27T00:36:37.086Z,20.12
2018-06-27T00:37:37.078Z,20.12
2018-06-27T00:38:37.069Z,20.12
2018-06-27T00:39:37.060Z,20.10
2018-06-27T00:40:37.055Z,20.07
2018-06-27T00:41:37.046Z,20.00
2018-06-27T00:42:37.037Z,19.90
2018-06-27T00:43:37.029Z,19.86
2018-06-27T00:44:37.021Z,19.71
2018-06-27T00:45:37.013Z,19.70
2018-06-27T00:46:37.009Z,19.71
2018-06-27T00:47:36.996Z,19.75
2018-06-27T00:48:36.987Z,19.79
2018-06-27T00:49:36.980Z,19.80
2018-06-27T00:50:36.973Z,19.78
2018-06-27T00:51:36.961Z,19.80
2018-06-27T00:52:36.954Z,19.78
2018-06-27T00:53:36.946Z,19.79
2018-06-27T00:54:36.936Z,19.76
2018-06-27T00:55:36.929Z,19.67
2018-06-27T00:56:36.921Z,19.49
2018-06-27T00:57:36.912Z,19.45
2018-06-27T00:58:36.908Z,19.45
2018-06-27T00:59:36.895Z,19.45
2018-06-27T01:00:36.887Z,19.50
2018-06-27T01:01:36.879Z,19.49
2018-06-27T01:02:36.869Z,19.43
2018-06-27T01:03:36.861Z,19.52
2018-06-27T01:04:36.854Z,19.55
2018-06-27T01:05:36.845Z,19.50
2018-06-27T01:06:36.834Z,19.46
2018-06-27T01:07:36.826Z,19.42
2018-06-27T01:08:36.819Z,19.43
2018-06-27T01:09:36.810Z,19.43
2018-06-27T01:10:36.803Z,19.46
2018-06-27T01:11:36.793Z,19.50
2018-06-27T01:12:36.785Z,19.42
2018-06-27T01:13:36.776Z,19.43
2018-06-27T01:14:36.765Z,19.57
2018-06-27T01:15:36.758Z,19.47
2018-06-27T01:16:36.749Z,19.42
2018-06-27T01:17:36.741Z,19.46
2018-06-27T01:18:36.730Z,19.45
2018-06-27T01:19:36.724Z,19.46
2018-06-27T01:20:36.716Z,19.39
2018-06-27T01:21:36.707Z,19.57
2018-06-27T01:22:36.696Z,19.49
2018-06-27T01:23:36.689Z,19.45
2018-06-27T01:24:36.679Z,19.52
2018-06-27T01:25:36.676Z,19.47
2018-06-27T01:26:36.661Z,19.52
2018-06-27T01:27:36.654Z,19.43
2018-06-27T01:28:36.646Z,19.47
2018-06-27T01:29:36.636Z,19.39
2018-06-27T01:30:36.627Z,19.38
2018-06-27T01:31:36.619Z,19.38
2018-06-27T01:32:36.611Z,19.35
2018-06-27T01:33:36.602Z,19.35
2018-06-27T01:34:36.593Z,19.30
2018-06-27T01:35:36.587Z,19.34
2018-06-27T01:36:36.578Z,19.34
2018-06-27T01:37:36.568Z,19.32
2018-06-27T01:38:36.559Z,19.25
2018-06-27T01:39:36.552Z,19.16
2018-06-27T01:40:36.544Z,19.15
2018-06-27T01:41:36.733Z,19.15
2018-06-27T01:42:36.522Z,19.15
2018-06-27T01:43:36.514Z,19.06
2018-06-27T01:44:36.505Z,19.10
2018-06-27T01:45:36.496Z,19.09
2018-06-27T01:46:36.489Z,19.12
2018-06-27T01:47:36.680Z,19.09
2018-06-27T01:48:36.469Z,19.09
2018-06-27T01:49:36.459Z,19.10
2018-06-27T01:50:36.450Z,19.09
2018-06-27T01:51:36.441Z,19.02
2018-06-27T01:52:36.432Z,19.01
2018-06-27T01:53:36.425Z,18.99
2018-06-27T01:54:36.415Z,18.91
2018-06-27T01:55:36.406Z,18.93
2018-06-27T01:56:36.397Z,18.90
2018-06-27T01:57:36.389Z,18.96
2018-06-27T01:58:36.379Z,18.90
2018-06-27T01:59:36.372Z,18.90
2018-06-27T02:00:36.361Z,18.94
2018-06-27T02:01:36.352Z,18.89
2018-06-27T02:02:36.341Z,18.89
2018-06-27T02:03:36.333Z,18.86
2018-06-27T02:04:36.324Z,18.89
2018-06-27T02:05:36.316Z,18.90
2018-06-27T02:06:36.305Z,18.84
2018-06-27T02:07:36.297Z,18.89
2018-06-27T02:08:36.288Z,18.91
2018-06-27T02:09:36.283Z,18.90
2018-06-27T02:10:36.272Z,18.90
2018-06-27T02:11:36.259Z,18.86
2018-06-27T02:12:36.249Z,18.82
2018-06-27T02:13:36.242Z,18.75
2018-06-27T02:14:36.231Z,18.68
2018-06-27T02:15:36.223Z,18.69
2018-06-27T02:16:36.214Z,18.71
2018-06-27T02:17:36.205Z,18.74
2018-06-27T02:18:36.196Z,18.64
2018-06-27T02:19:36.186Z,18.60
2018-06-27T02:20:36.177Z,18.50
2018-06-27T02:21:36.168Z,18.57
2018-06-27T02:22:36.158Z,18.64
2018-06-27T02:23:36.151Z,18.65
2018-06-27T02:24:36.141Z,18.71
2018-06-27T02:25:36.130Z,18.66
2018-06-27T02:26:36.158Z,18.69
2018-06-27T02:27:36.196Z,18.60
2018-06-27T02:28:36.102Z,18.65
2018-06-27T02:29:36.093Z,18.50
2018-06-27T02:30:36.084Z,18.41
2018-06-27T02:31:36.073Z,18.41
2018-06-27T02:32:36.065Z,18.38
2018-06-27T02:33:36.056Z,18.39
2018-06-27T02:34:36.044Z,18.44
2018-06-27T02:35:36.038Z,18.51
2018-06-27T02:36:36.030Z,18.39
2018-06-27T02:37:36.018Z,18.44
2018-06-27T02:38:36.007Z,18.46
2018-06-27T02:39:35.998Z,18.41
2018-06-27T02:40:35.989Z,18.46
2018-06-27T02:41:36.179Z,18.34
2018-06-27T02:42:35.968Z,18.31
2018-06-27T02:43:35.962Z,18.39
2018-06-27T02:44:35.951Z,18.38
2018-06-27T02:45:35.944Z,18.41
2018-06-27T02:46:35.931Z,18.34
2018-06-27T02:47:35.923Z,18.26
2018-06-27T02:48:35.911Z,18.20
2018-06-27T02:49:35.905Z,18.21
2018-06-27T02:50:35.894Z,18.13
2018-06-27T02:51:35.883Z,18.13
2018-06-27T02:52:35.875Z,18.05
2018-06-27T02:53:36.065Z,18.11
2018-06-27T02:54:35.854Z,18.11
2018-06-27T02:55:35.844Z,18.19
2018-06-27T02:56:35.839Z,18.16
2018-06-27T02:57:35.826Z,18.11
2018-06-27T02:58:35.815Z,18.16
2018-06-27T02:59:35.806Z,18.10
2018-06-27T03:00:35.796Z,18.20
2018-06-27T03:01:35.788Z,18.14
2018-06-27T03:02:35.839Z,18.11
2018-06-27T03:03:35.769Z,18.09
2018-06-27T03:04:35.758Z,18.07
2018-06-27T03:05:35.748Z,18.13
2018-06-27T03:06:35.737Z,18.07
2018-06-27T03:07:35.729Z,18.04
2018-06-27T03:08:35.722Z,18.05
2018-06-27T03:09:35.708Z,18.16
2018-06-27T03:10:35.699Z,18.14
2018-06-27T03:11:35.690Z,18.14
2018-06-27T03:12:35.680Z,18.13
2018-06-27T03:13:35.670Z,18.16
2018-06-27T03:14:35.661Z,18.11
2018-06-27T03:15:35.651Z,18.13
2018-06-27T03:16:35.645Z,18.07
2018-06-27T03:17:35.832Z,18.07
2018-06-27T03:18:35.621Z,18.09
2018-06-27T03:19:35.611Z,18.04
2018-06-27T03:20:35.606Z,18.02
2018-06-27T03:21:35.592Z,17.89
2018-06-27T03:22:35.582Z,17.91
2018-06-27T03:23:35.573Z,17.96
2018-06-27T03:24:35.564Z,18.07
2018-06-27T03:25:35.554Z,18.14
2018-06-27T03:26:35.543Z,18.16
2018-06-27T03:27:35.533Z,18.20
2018-06-27T03:28:35.523Z,18.13
2018-06-27T03:29:35.514Z,18.14
2018-06-27T03:30:35.505Z,18.14
2018-06-27T03:31:35.494Z,18.13
2018-06-27T03:32:35.486Z,18.16
2018-06-27T03:33:35.479Z,18.16
2018-06-27T03:34:35.466Z,18.25
2018-06-27T03:35:35.457Z,18.23
2018-06-27T03:36:35.447Z,18.31
2018-06-27T03:37:35.438Z,18.21
2018-06-27T03:38:35.426Z,18.25
2018-06-27T03:39:35.418Z,18.21
2018-06-27T03:40:35.408Z,18.19
2018-06-27T03:41:35.403Z,18.11
2018-06-27T03:42:35.389Z,18.09
2018-06-27T03:43:35.380Z,18.14
2018-06-27T03:44:35.370Z,18.17
2018-06-27T03:45:35.361Z,18.11
2018-06-27T03:46:35.350Z,18.02
2018-06-27T03:47:35.343Z,18.07
2018-06-27T03:48:35.332Z,18.09
2018-06-27T03:49:35.323Z,18.05
2018-06-27T03:50:35.310Z,18.05
2018-06-27T03:51:35.305Z,18.09
2018-06-27T03:52:35.294Z,18.07
2018-06-27T03:53:35.284Z,18.01
2018-06-27T03:54:35.274Z,17.92
2018-06-27T03:55:35.264Z,17.91
2018-06-27T03:56:35.257Z,17.91
2018-06-27T03:57:35.246Z,17.92
2018-06-27T03:58:35.237Z,17.95
2018-06-27T03:59:35.226Z,17.84
2018-06-27T04:00:35.216Z,17.89
2018-06-27T04:01:35.207Z,17.81
2018-06-27T04:02:35.196Z,17.70
2018-06-27T04:03:35.187Z,17.79
2018-06-27T04:04:35.177Z,17.83
2018-06-27T04:05:35.368Z,17.89
2018-06-27T04:06:35.157Z,18.01
2018-06-27T04:07:35.148Z,18.02
2018-06-27T04:08:35.137Z,17.95
2018-06-27T04:09:35.129Z,17.96
2018-06-27T04:10:35.118Z,17.89
2018-06-27T04:11:35.108Z,17.96
2018-06-27T04:12:35.132Z,17.87
2018-06-27T04:13:35.150Z,18.04
2018-06-27T04:14:35.178Z,17.94
2018-06-27T04:15:35.069Z,17.91
2018-06-27T04:16:35.060Z,17.98
2018-06-27T04:17:35.051Z,18.02
2018-06-27T04:18:35.040Z,18.05
2018-06-27T04:19:35.030Z,17.89
2018-06-27T04:20:35.020Z,17.98
2018-06-27T04:21:35.012Z,18.04
2018-06-27T04:22:35.005Z,18.07
2018-06-27T04:23:34.991Z,18.07
2018-06-27T04:24:34.980Z,18.09
2018-06-27T04:25:34.972Z,18.13
2018-06-27T04:26:34.962Z,18.11
2018-06-27T04:27:34.953Z,18.17
2018-06-27T04:28:34.942Z,18.07
2018-06-27T04:29:34.933Z,18.04
2018-06-27T04:30:34.923Z,17.98
2018-06-27T04:31:34.914Z,17.84
2018-06-27T04:32:34.904Z,17.76
2018-06-27T04:33:34.896Z,17.81
2018-06-27T04:34:34.882Z,17.84
2018-06-27T04:35:35.074Z,17.84
2018-06-27T04:36:34.867Z,17.96
2018-06-27T04:37:34.855Z,17.79
2018-06-27T04:38:34.844Z,17.87
2018-06-27T04:39:34.834Z,17.96
2018-06-27T04:40:34.825Z,18.01
2018-06-27T04:41:34.816Z,17.91
2018-06-27T04:42:34.805Z,17.98
2018-06-27T04:43:34.795Z,18.01
2018-06-27T04:44:34.784Z,17.98
2018-06-27T04:45:34.778Z,17.99
2018-06-27T04:46:34.765Z,18.01
2018-06-27T04:47:34.956Z,18.01
2018-06-27T04:48:34.747Z,18.05
2018-06-27T04:49:34.800Z,17.96
2018-06-27T04:50:34.727Z,17.86
2018-06-27T04:51:34.715Z,17.62
2018-06-27T04:52:34.707Z,17.63
2018-06-27T04:53:34.696Z,17.49
2018-06-27T04:54:34.687Z,17.43
2018-06-27T04:55:34.681Z,17.36
2018-06-27T04:56:34.670Z,17.18
2018-06-27T04:57:34.657Z,17.27
2018-06-27T04:58:34.647Z,17.28
2018-06-27T04:59:34.635Z,17.40
2018-06-27T05:00:34.625Z,17.45
2018-06-27T05:01:34.677Z,17.49
2018-06-27T05:02:34.604Z,17.42
2018-06-27T05:03:34.594Z,17.47
2018-06-27T05:04:34.582Z,17.43
2018-06-27T05:05:34.774Z,17.43
2018-06-27T05:06:34.562Z,17.51
2018-06-27T05:07:34.591Z,17.53
2018-06-27T05:08:34.542Z,17.53
2018-06-27T05:09:34.533Z,17.49
2018-06-27T05:10:34.525Z,17.49
2018-06-27T05:11:34.745Z,17.53
2018-06-27T05:12:34.502Z,17.58
2018-06-27T05:13:34.492Z,17.54
2018-06-27T05:14:34.482Z,17.55
2018-06-27T05:15:34.472Z,17.49
2018-06-27T05:16:34.463Z,17.53
2018-06-27T05:17:34.454Z,17.60
2018-06-27T05:18:34.441Z,17.53
2018-06-27T05:19:34.433Z,17.46
2018-06-27T05:20:34.422Z,17.39
2018-06-27T05:21:34.412Z,17.36
2018-06-27T05:22:34.402Z,17.30
2018-06-27T05:23:34.592Z,17.27
2018-06-27T05:24:34.382Z,17.42
2018-06-27T05:25:34.372Z,17.35
2018-06-27T05:26:34.361Z,17.36
2018-06-27T05:27:34.381Z,17.28
2018-06-27T05:28:34.344Z,17.33
2018-06-27T05:29:34.335Z,17.27
2018-06-27T05:30:34.321Z,17.30
2018-06-27T05:31:34.311Z,17.36
2018-06-27T05:32:34.306Z,17.36
2018-06-27T05:33:34.291Z,17.27
2018-06-27T05:34:34.281Z,17.38
2018-06-27T05:35:34.270Z,17.32
2018-06-27T05:36:34.262Z,17.30
2018-06-27T05:37:34.251Z,17.35
2018-06-27T05:38:34.242Z,17.30
2018-06-27T05:39:34.231Z,17.21
2018-06-27T05:40:34.220Z,17.36
2018-06-27T05:41:34.209Z,17.28
2018-06-27T05:42:34.200Z,17.27
2018-06-27T05:43:34.191Z,17.18
2018-06-27T05:44:34.179Z,17.33
2018-06-27T05:45:34.170Z,17.25
2018-06-27T05:46:34.158Z,17.27
2018-06-27T05:47:34.150Z,17.25
2018-06-27T05:48:34.138Z,17.21
2018-06-27T05:49:34.128Z,17.32
2018-06-27T05:50:34.118Z,17.25
2018-06-27T05:51:34.113Z,17.17
2018-06-27T05:52:34.100Z,17.24
2018-06-27T05:53:34.087Z,17.22
2018-06-27T05:54:34.076Z,17.18
2018-06-27T05:55:34.066Z,17.28
2018-06-27T05:56:34.057Z,17.28
2018-06-27T05:57:34.045Z,17.30
2018-06-27T05:58:34.040Z,17.18
2018-06-27T05:59:34.224Z,17.30
2018-06-27T06:00:34.015Z,17.17
2018-06-27T06:01:34.005Z,17.24
2018-06-27T06:02:33.993Z,17.20
2018-06-27T06:03:33.984Z,17.20
2018-06-27T06:04:33.976Z,17.21
2018-06-27T06:05:33.965Z,17.14
2018-06-27T06:06:33.954Z,17.20
2018-06-27T06:07:33.942Z,17.18
2018-06-27T06:08:33.932Z,17.21
2018-06-27T06:09:33.921Z,17.15
2018-06-27T06:10:33.911Z,17.30
2018-06-27T06:11:33.928Z,17.30
2018-06-27T06:12:33.891Z,17.24
2018-06-27T06:13:33.882Z,17.27
2018-06-27T06:14:33.873Z,17.21
2018-06-27T06:15:33.859Z,17.18
2018-06-27T06:16:33.849Z,17.17
2018-06-27T06:17:34.041Z,17.14
2018-06-27T06:18:33.827Z,17.10
2018-06-27T06:19:33.817Z,16.95
2018-06-27T06:20:33.807Z,16.98
2018-06-27T06:21:33.797Z,16.99
2018-06-27T06:22:33.786Z,16.98
2018-06-27T06:23:33.775Z,16.95
2018-06-27T06:24:33.770Z,17.02
2018-06-27T06:25:33.757Z,17.14
2018-06-27T06:26:33.744Z,17.00
2018-06-27T06:27:33.734Z,17.10
2018-06-27T06:28:33.723Z,17.05
2018-06-27T06:29:33.912Z,17.02
2018-06-27T06:30:33.702Z,17.00
2018-06-27T06:31:33.691Z,17.03
2018-06-27T06:32:33.769Z,16.98
2018-06-27T06:33:33.670Z,17.03
2018-06-27T06:34:33.659Z,16.92
2018-06-27T06:35:33.651Z,16.87
2018-06-27T06:36:33.639Z,16.87
2018-06-27T06:37:33.627Z,16.90
2018-06-27T06:38:33.616Z,16.80
2018-06-27T06:39:33.605Z,16.73
2018-06-27T06:40:33.590Z,16.73
2018-06-27T06:41:33.780Z,16.75
2018-06-27T06:42:33.567Z,16.66
2018-06-27T06:43:33.556Z,16.78
2018-06-27T06:44:33.549Z,16.78
2018-06-27T06:45:33.539Z,16.67
2018-06-27T06:46:33.524Z,16.65
2018-06-27T06:47:33.514Z,16.73
2018-06-27T06:48:33.505Z,16.63
2018-06-27T06:49:33.493Z,16.65
2018-06-27T06:50:33.482Z,16.57
2018-06-27T06:51:33.472Z,16.51
2018-06-27T06:52:33.460Z,16.51
2018-06-27T06:53:33.650Z,16.52
2018-06-27T06:54:33.439Z,16.54
2018-06-27T06:55:33.429Z,16.57
2018-06-27T06:56:33.418Z,16.55
2018-06-27T06:57:33.407Z,16.52
2018-06-27T06:58:33.396Z,16.65
2018-06-27T06:59:33.384Z,16.50
2018-06-27T07:00:33.374Z,16.52
2018-06-27T07:01:33.366Z,16.42
2018-06-27T07:02:33.355Z,16.37
2018-06-27T07:03:33.341Z,16.47
2018-06-27T07:04:33.332Z,16.42
2018-06-27T07:05:33.320Z,16.42
2018-06-27T07:06:33.308Z,16.33
2018-06-27T07:07:33.298Z,16.34
2018-06-27T07:08:33.288Z,16.37
2018-06-27T07:09:33.276Z,16.36
2018-06-27T07:10:33.264Z,16.26
2018-06-27T07:11:33.254Z,16.27
2018-06-27T07:12:33.242Z,16.26
2018-06-27T07:13:33.234Z,16.36
2018-06-27T07:14:33.220Z,16.32
2018-06-27T07:15:33.211Z,16.32
2018-06-27T07:16:33.197Z,16.32
2018-06-27T07:17:33.187Z,16.27
2018-06-27T07:18:33.176Z,16.26
2018-06-27T07:19:33.164Z,16.25
2018-06-27T07:20:33.153Z,16.27
2018-06-27T07:21:33.143Z,16.26
2018-06-27T07:22:33.130Z,16.26
2018-06-27T07:23:33.119Z,16.30
2018-06-27T07:24:33.107Z,16.37
2018-06-27T07:25:33.098Z,16.37
2018-06-27T07:26:33.084Z,16.33
2018-06-27T07:27:33.078Z,16.36
2018-06-27T07:28:33.131Z,16.44
2018-06-27T07:29:33.053Z,16.36
2018-06-27T07:30:33.041Z,16.48
2018-06-27T07:31:33.031Z,16.48
2018-06-27T07:32:33.020Z,16.50
2018-06-27T07:33:33.008Z,16.40
2018-06-27T07:34:32.996Z,16.34
2018-06-27T07:35:32.986Z,16.40
2018-06-27T07:36:32.977Z,16.44
2018-06-27T07:37:32.965Z,16.37
2018-06-27T07:38:32.951Z,16.36
2018-06-27T07:39:32.941Z,16.36
2018-06-27T07:40:32.931Z,16.37
2018-06-27T07:41:32.920Z,16.33
2018-06-27T07:42:32.909Z,16.36
2018-06-27T07:43:32.898Z,16.34
2018-06-27T07:44:32.938Z,16.34
2018-06-27T07:45:32.876Z,16.34
2018-06-27T07:46:32.863Z,16.40
2018-06-27T07:47:32.853Z,16.33
2018-06-27T07:48:32.843Z,16.32
2018-06-27T07:49:32.838Z,16.36
2018-06-27T07:50:32.819Z,16.42
2018-06-27T07:51:32.812Z,16.55
2018-06-27T07:52:32.798Z,16.40
2018-06-27T07:53:32.786Z,16.50
2018-06-27T07:54:32.776Z,16.57
2018-06-27T07:55:32.766Z,16.65
2018-06-27T07:56:32.754Z,16.60
2018-06-27T07:57:32.742Z,16.62
2018-06-27T07:58:32.732Z,16.59
2018-06-27T07:59:32.720Z,16.57
2018-06-27T08:00:32.711Z,16.62
2018-06-27T08:01:32.699Z,16.48
2018-06-27T08:02:32.689Z,16.44
2018-06-27T08:03:32.677Z,16.42
2018-06-27T08:04:32.666Z,16.42
2018-06-27T08:05:32.857Z,16.40
2018-06-27T08:06:32.645Z,16.47
2018-06-27T08:07:32.634Z,16.48
2018-06-27T08:08:32.624Z,16.48
2018-06-27T08:09:32.614Z,16.47
2018-06-27T08:10:32.601Z,16.42
2018-06-27T08:11:32.591Z,16.48
2018-06-27T08:12:32.628Z,16.45
2018-06-27T08:13:32.569Z,16.37
2018-06-27T08:14:32.563Z,16.36
2018-06-27T08:15:32.548Z,16.29
2018-06-27T08:16:32.537Z,16.32
2018-06-27T08:17:32.735Z,16.26
2018-06-27T08:18:32.514Z,16.22
2018-06-27T08:19:32.503Z,16.13
2018-06-27T08:20:32.493Z,16.16
2018-06-27T08:21:32.482Z,16.14
2018-06-27T08:22:32.470Z,16.13
2018-06-27T08:23:32.462Z,16.27
2018-06-27T08:24:32.450Z,16.22
2018-06-27T08:25:32.439Z,16.26
2018-06-27T08:26:32.429Z,16.22
2018-06-27T08:27:32.417Z,16.29
2018-06-27T08:28:32.405Z,16.33
2018-06-27T08:29:32.395Z,16.44
2018-06-27T08:30:32.384Z,16.44
2018-06-27T08:31:32.373Z,16.48
2018-06-27T08:32:32.368Z,16.42
2018-06-27T08:33:32.351Z,16.48
2018-06-27T08:34:32.341Z,16.52
2018-06-27T08:35:32.329Z,16.36
2018-06-27T08:36:32.318Z,16.47
2018-06-27T08:37:32.308Z,16.51
2018-06-27T08:38:32.296Z,16.51
2018-06-27T08:39:32.285Z,16.51
2018-06-27T08:40:32.275Z,16.51
2018-06-27T08:41:32.264Z,16.52
2018-06-27T08:42:32.253Z,16.44
2018-06-27T08:43:32.241Z,16.41
2018-06-27T08:44:32.306Z,16.40
2018-06-27T08:45:32.220Z,16.32
2018-06-27T08:46:32.209Z,16.36
2018-06-27T08:47:32.198Z,16.34
2018-06-27T08:48:32.187Z,16.27
2018-06-27T08:49:32.177Z,16.33
2018-06-27T08:50:32.166Z,16.32
2018-06-27T08:51:32.154Z,16.33
2018-06-27T08:52:32.142Z,16.30
2018-06-27T08:53:32.131Z,16.30
2018-06-27T08:54:32.120Z,16.32
2018-06-27T08:55:32.110Z,16.29
2018-06-27T08:56:32.099Z,16.37
2018-06-27T08:57:32.089Z,16.40
2018-06-27T08:58:32.079Z,16.42
2018-06-27T08:59:32.065Z,16.42
2018-06-27T09:00:32.058Z,16.50
2018-06-27T09:01:32.044Z,16.48
2018-06-27T09:02:32.031Z,16.47
2018-06-27T09:03:32.020Z,16.42
2018-06-27T09:04:32.010Z,16.34
2018-06-27T09:05:32.000Z,16.33
2018-06-27T09:06:31.987Z,16.36
2018-06-27T09:07:31.975Z,16.41
2018-06-27T09:08:31.966Z,16.42
2018-06-27T09:09:31.955Z,16.40
2018-06-27T09:10:31.943Z,16.42
2018-06-27T09:11:31.933Z,16.47
2018-06-27T09:12:31.922Z,16.50
2018-06-27T09:13:31.910Z,16.47
2018-06-27T09:14:31.899Z,16.55
2018-06-27T09:15:31.888Z,16.48
2018-06-27T09:16:31.878Z,16.55
2018-06-27T09:17:32.067Z,16.67
2018-06-27T09:18:31.876Z,16.52
2018-06-27T09:19:31.846Z,16.60
2018-06-27T09:20:31.834Z,16.59
2018-06-27T09:21:31.824Z,16.59
2018-06-27T09:22:31.811Z,16.55
2018-06-27T09:23:31.800Z,16.50
2018-06-27T09:24:31.790Z,16.51
2018-06-27T09:25:31.782Z,16.50
2018-06-27T09:26:31.770Z,16.59
2018-06-27T09:27:31.758Z,16.47
2018-06-27T09:28:31.746Z,16.52
2018-06-27T09:29:31.736Z,16.57
2018-06-27T09:30:31.725Z,16.54
2018-06-27T09:31:31.714Z,16.48
2018-06-27T09:32:31.703Z,16.51
2018-06-27T09:33:31.692Z,16.45
2018-06-27T09:34:31.682Z,16.50
2018-06-27T09:35:31.671Z,16.50
2018-06-27T09:36:31.660Z,16.50
2018-06-27T09:37:31.650Z,16.57
2018-06-27T09:38:31.641Z,16.44
2018-06-27T09:39:31.628Z,16.54
2018-06-27T09:40:31.616Z,16.51
2018-06-27T09:41:31.606Z,16.50
2018-06-27T09:42:31.594Z,16.54
2018-06-27T09:43:31.584Z,16.59
2018-06-27T09:44:31.572Z,16.62
2018-06-27T09:45:31.563Z,16.59
2018-06-27T09:46:31.551Z,16.57
2018-06-27T09:47:31.742Z,16.57
2018-06-27T09:48:31.530Z,16.67
2018-06-27T09:49:31.519Z,16.73
2018-06-27T09:50:31.512Z,16.81
2018-06-27T09:51:31.497Z,16.85
2018-06-27T09:52:31.486Z,16.81
2018-06-27T09:53:31.476Z,16.80
2018-06-27T09:54:31.465Z,16.81
2018-06-27T09:55:31.454Z,16.82
2018-06-27T09:56:31.442Z,16.87
2018-06-27T09:57:31.433Z,16.84
2018-06-27T09:58:31.422Z,16.80
2018-06-27T09:59:31.411Z,16.80
2018-06-27T10:00:31.399Z,16.87
2018-06-27T10:01:31.391Z,16.85
2018-06-27T10:02:31.378Z,16.99
2018-06-27T10:03:31.368Z,16.95
2018-06-27T10:04:31.357Z,16.95
2018-06-27T10:05:31.548Z,16.98
2018-06-27T10:06:31.336Z,17.10
2018-06-27T10:07:31.326Z,17.07
2018-06-27T10:08:31.315Z,17.15
2018-06-27T10:09:31.307Z,17.18
2018-06-27T10:10:31.294Z,17.20
2018-06-27T10:11:31.282Z,17.28
2018-06-27T10:12:31.272Z,17.36
2018-06-27T10:13:31.261Z,17.30
2018-06-27T10:14:31.252Z,17.30
2018-06-27T10:15:31.240Z,17.30
2018-06-27T10:16:31.232Z,17.27
2018-06-27T10:17:31.221Z,17.18
2018-06-27T10:18:31.210Z,17.21
2018-06-27T10:19:31.211Z,17.17
2018-06-27T10:20:31.189Z,17.21
2018-06-27T10:21:31.182Z,17.07
2018-06-27T10:22:31.212Z,17.00
2018-06-27T10:23:31.160Z,16.90
2018-06-27T10:24:31.146Z,16.87
2018-06-27T10:25:31.138Z,16.85
2018-06-27T10:26:31.126Z,16.85
2018-06-27T10:27:31.116Z,16.84
2018-06-27T10:28:31.133Z,16.77
2018-06-27T10:29:31.096Z,16.72
2018-06-27T10:30:31.085Z,16.72
2018-06-27T10:31:31.074Z,16.67
2018-06-27T10:32:31.062Z,16.72
2018-06-27T10:33:31.054Z,16.66
2018-06-27T10:34:31.042Z,16.66
2018-06-27T10:35:31.032Z,16.67
2018-06-27T10:36:31.021Z,16.73
2018-06-27T10:37:31.010Z,16.70
2018-06-27T10:38:31.003Z,16.80
2018-06-27T10:39:30.987Z,16.85
2018-06-27T10:40:30.978Z,16.91
2018-06-27T10:41:30.967Z,16.88
2018-06-27T10:42:30.956Z,16.99
2018-06-27T10:43:30.945Z,16.87
2018-06-27T10:44:30.948Z,16.95
2018-06-27T10:45:30.925Z,17.06
2018-06-27T10:46:30.914Z,17.03
2018-06-27T10:47:30.903Z,16.98
2018-06-27T10:48:30.891Z,16.87
2018-06-27T10:49:30.883Z,16.92
2018-06-27T10:50:30.873Z,16.85
2018-06-27T10:51:30.860Z,16.98
2018-06-27T10:52:30.849Z,16.95
2018-06-27T10:53:30.839Z,16.92
2018-06-27T10:54:30.829Z,16.90
2018-06-27T10:55:30.818Z,16.91
2018-06-27T10:56:30.807Z,17.00
2018-06-27T10:57:30.797Z,16.98
2018-06-27T10:58:30.786Z,17.03
2018-06-27T10:59:30.777Z,17.06
2018-06-27T11:00:30.765Z,17.20
2018-06-27T11:01:30.756Z,17.18
2018-06-27T11:02:30.743Z,17.24
2018-06-27T11:03:30.733Z,17.22
2018-06-27T11:04:30.723Z,17.09
2018-06-27T11:05:30.913Z,17.07
2018-06-27T11:06:30.700Z,17.03
2018-06-27T11:07:30.699Z,17.05
2018-06-27T11:08:30.680Z,17.05
2018-06-27T11:09:30.669Z,16.96
2018-06-27T11:10:30.660Z,16.92
2018-06-27T11:11:30.850Z,16.85
2018-06-27T11:12:30.637Z,16.82
2018-06-27T11:13:30.628Z,16.96
2018-06-27T11:14:30.622Z,16.95
2018-06-27T11:15:30.606Z,16.96
2018-06-27T11:16:30.596Z,16.95
2018-06-27T11:17:30.585Z,16.98
2018-06-27T11:18:30.573Z,16.98
2018-06-27T11:19:30.564Z,16.84
2018-06-27T11:20:30.582Z,16.82
2018-06-27T11:21:30.541Z,16.88
2018-06-27T11:22:30.532Z,16.73
2018-06-27T11:23:30.519Z,16.75
2018-06-27T11:24:30.509Z,16.66
2018-06-27T11:25:30.503Z,16.59
2018-06-27T11:26:30.488Z,16.65
2018-06-27T11:27:30.477Z,16.51
2018-06-27T11:28:30.467Z,16.57
2018-06-27T11:29:30.456Z,16.52
2018-06-27T11:30:30.445Z,16.54
2018-06-27T11:31:30.433Z,16.45
2018-06-27T11:32:30.422Z,16.42
2018-06-27T11:33:30.411Z,16.45
2018-06-27T11:34:30.400Z,16.36
2018-06-27T11:35:30.590Z,16.34
2018-06-27T11:36:30.380Z,16.37
2018-06-27T11:37:30.719Z,16.37
2018-06-27T11:38:30.421Z,16.45
2018-06-27T11:39:30.346Z,16.37
2018-06-27T11:40:30.332Z,16.45
2018-06-27T11:41:30.322Z,16.59
2018-06-27T11:42:30.310Z,16.63
2018-06-27T11:43:30.300Z,16.60
2018-06-27T11:44:30.344Z,16.65
2018-06-27T11:45:30.278Z,16.63
2018-06-27T11:46:30.266Z,16.85
2018-06-27T11:47:30.255Z,16.88
2018-06-27T11:48:30.244Z,16.88
2018-06-27T11:49:30.383Z,17.03
2018-06-27T11:50:30.222Z,17.10
2018-06-27T11:51:30.211Z,17.15
2018-06-27T11:52:30.200Z,17.27
2018-06-27T11:53:30.189Z,17.24
2018-06-27T11:54:30.178Z,17.15
2018-06-27T11:55:30.168Z,17.17
2018-06-27T11:56:30.157Z,17.18
2018-06-27T11:57:30.146Z,17.18
2018-06-27T11:58:30.138Z,17.32
2018-06-27T11:59:30.126Z,17.33
2018-06-27T12:00:30.116Z,17.45
2018-06-27T12:01:30.103Z,17.43
2018-06-27T12:02:30.094Z,17.45
2018-06-27T12:03:30.084Z,17.58
2018-06-27T12:04:30.073Z,17.74
2018-06-27T12:05:30.063Z,17.73
2018-06-27T12:06:30.053Z,17.92
2018-06-27T12:07:30.045Z,17.95
2018-06-27T12:08:30.080Z,18.04
2018-06-27T12:09:30.022Z,18.11
2018-06-27T12:10:30.014Z,18.23
2018-06-27T12:11:30.000Z,18.36
2018-06-27T12:12:29.991Z,18.20
2018-06-27T12:13:29.988Z,18.26
2018-06-27T12:14:29.971Z,18.21
2018-06-27T12:15:29.961Z,18.13
2018-06-27T12:16:29.952Z,18.17
2018-06-27T12:17:29.942Z,18.20
2018-06-27T12:18:29.930Z,18.23
2018-06-27T12:19:29.922Z,18.29
2018-06-27T12:20:29.912Z,18.32
2018-06-27T12:21:29.902Z,18.42
2018-06-27T12:22:29.891Z,18.50
2018-06-27T12:23:29.881Z,18.47
2018-06-27T12:24:29.872Z,18.44
2018-06-27T12:25:29.863Z,18.51
2018-06-27T12:26:30.064Z,18.49
2018-06-27T12:27:29.843Z,18.38
2018-06-27T12:28:29.834Z,18.39
2018-06-27T12:29:29.824Z,18.34
2018-06-27T12:30:29.814Z,18.38
2018-06-27T12:31:29.804Z,18.50
2018-06-27T12:32:29.833Z,18.36
2018-06-27T12:33:29.785Z,18.35
2018-06-27T12:34:29.777Z,18.42
2018-06-27T12:35:29.766Z,18.42
2018-06-27T12:36:29.758Z,18.49
2018-06-27T12:37:29.797Z,18.49
2018-06-27T12:38:29.743Z,18.49
2018-06-27T12:39:29.728Z,18.54
2018-06-27T12:40:29.718Z,18.66
2018-06-27T12:41:29.709Z,18.54
2018-06-27T12:42:29.698Z,18.57
2018-06-27T12:43:29.689Z,18.59
2018-06-27T12:44:29.759Z,18.62
2018-06-27T12:45:29.672Z,18.54
2018-06-27T12:46:29.660Z,18.56
2018-06-27T12:47:29.653Z,18.54
2018-06-27T12:48:29.642Z,18.47
2018-06-27T12:49:29.632Z,18.34
2018-06-27T12:50:29.627Z,18.39
2018-06-27T12:51:29.614Z,18.34
2018-06-27T12:52:29.602Z,18.36